sensor_id;sensor_type;location;lat;lon;timestamp;temperature;humidity
37446;DHT22;23307;51.136;14.942;2023-09-19T00:01:14;19.70;99.90
37446;DHT22;23307;51.136;14.942;2023-09-19T00:03:40;19.70;99.90
37446;DHT22;23307;51.136;14.942;2023-09-19T00:06:07;19.60;99.90
37446;DHT22;23307;51.136;14.942;2023-09-19T00:08:33;19.60;99.90
37446;DHT22;23307;51.136;14.942;2023-09-19T00:10:59;19.50;99.90
37446;DHT22;23307;51.136;14.942;2023-09-19T00:13:29;19.50;99.90
37446;DHT22;23307;51.136;14.942;2023-09-19T00:15:56;19.40;99.90
37446;DHT22;23307;51.136;14.942;2023-09-19T00:18:24;19.40;99.90
37446;DHT22;23307;51.136;14.942;2023-09-19T00:20:57;19.40;99.90
37446;DHT22;23307;51.136;14.942;2023-09-19T00:23:22;19.30;99.90
37446;DHT22;23307;51.136;14.942;2023-09-19T00:25:50;19.30;99.90
37446;DHT22;23307;51.136;14.942;2023-09-19T00:28:17;19.30;99.90
37446;DHT22;23307;51.136;14.942;2023-09-19T00:30:44;19.30;99.90
37446;DHT22;23307;51.136;14.942;2023-09-19T00:33:10;19.30;99.90
37446;DHT22;23307;51.136;14.942;2023-09-19T00:35:37;19.30;99.90
37446;DHT22;23307;51.136;14.942;2023-09-19T00:38:02;19.20;99.90
37446;DHT22;23307;51.136;14.942;2023-09-19T00:40:29;19.20;99.90
37446;DHT22;23307;51.136;14.942;2023-09-19T00:42:58;19.20;99.90
37446;DHT22;23307;51.136;14.942;2023-09-19T00:45:26;19.20;99.90
37446;DHT22;23307;51.136;14.942;2023-09-19T00:47:52;19.20;99.90
37446;DHT22;23307;51.136;14.942;2023-09-19T00:50:19;19.10;99.90
37446;DHT22;23307;51.136;14.942;2023-09-19T00:52:48;19.10;99.90
37446;DHT22;23307;51.136;14.942;2023-09-19T00:55:15;19.10;99.90
37446;DHT22;23307;51.136;14.942;2023-09-19T00:57:42;19.00;99.90
37446;DHT22;23307;51.136;14.942;2023-09-19T01:00:11;19.00;99.90
37446;DHT22;23307;51.136;14.942;2023-09-19T01:02:42;19.00;99.90
37446;DHT22;23307;51.136;14.942;2023-09-19T01:05:09;19.00;99.90
37446;DHT22;23307;51.136;14.942;2023-09-19T01:07:35;19.00;99.90
37446;DHT22;23307;51.136;14.942;2023-09-19T01:10:05;19.00;99.90
37446;DHT22;23307;51.136;14.942;2023-09-19T01:23:39;19.00;99.90
37446;DHT22;23307;51.136;14.942;2023-09-19T01:26:18;19.00;99.90
37446;DHT22;23307;51.136;14.942;2023-09-19T01:29:08;19.00;99.90
37446;DHT22;23307;51.136;14.942;2023-09-19T01:31:40;19.00;99.90
37446;DHT22;23307;51.136;14.942;2023-09-19T01:34:07;19.00;99.90
37446;DHT22;23307;51.136;14.942;2023-09-19T01:36:35;18.90;99.90
37446;DHT22;23307;51.136;14.942;2023-09-19T01:39:04;19.00;99.90
37446;DHT22;23307;51.136;14.942;2023-09-19T01:42:04;19.00;99.90
37446;DHT22;23307;51.136;14.942;2023-09-19T01:47:26;19.00;99.90
37446;DHT22;23307;51.136;14.942;2023-09-19T01:50:49;19.00;99.90
37446;DHT22;23307;51.136;14.942;2023-09-19T01:52:56;18.90;99.90
37446;DHT22;23307;51.136;14.942;2023-09-19T01:55:22;18.90;99.90
37446;DHT22;23307;51.136;14.942;2023-09-19T01:58:04;18.90;99.90
37446;DHT22;23307;51.136;14.942;2023-09-19T02:00:34;18.90;99.90
37446;DHT22;23307;51.136;14.942;2023-09-19T02:03:01;18.90;99.90
37446;DHT22;23307;51.136;14.942;2023-09-19T02:05:28;18.90;99.90
37446;DHT22;23307;51.136;14.942;2023-09-19T02:07:54;18.90;99.90
37446;DHT22;23307;51.136;14.942;2023-09-19T02:10:21;18.90;99.90
37446;DHT22;23307;51.136;14.942;2023-09-19T02:12:46;18.80;99.90
37446;DHT22;23307;51.136;14.942;2023-09-19T02:15:12;18.80;99.90
37446;DHT22;23307;51.136;14.942;2023-09-19T02:17:38;18.80;99.90
37446;DHT22;23307;51.136;14.942;2023-09-19T02:20:04;18.80;99.90
37446;DHT22;23307;51.136;14.942;2023-09-19T02:22:39;18.80;99.90
37446;DHT22;23307;51.136;14.942;2023-09-19T02:25:05;18.70;99.90
37446;DHT22;23307;51.136;14.942;2023-09-19T02:27:30;18.70;99.90
37446;DHT22;23307;51.136;14.942;2023-09-19T02:29:56;18.70;99.90
37446;DHT22;23307;51.136;14.942;2023-09-19T02:32:22;18.70;99.90
37446;DHT22;23307;51.136;14.942;2023-09-19T02:34:48;18.70;99.90
37446;DHT22;23307;51.136;14.942;2023-09-19T02:37:14;18.70;99.90
37446;DHT22;23307;51.136;14.942;2023-09-19T02:39:41;18.70;99.90
37446;DHT22;23307;51.136;14.942;2023-09-19T02:42:07;18.60;99.90
37446;DHT22;23307;51.136;14.942;2023-09-19T02:44:33;18.60;99.90
37446;DHT22;23307;51.136;14.942;2023-09-19T02:46:59;18.60;99.90
37446;DHT22;23307;51.136;14.942;2023-09-19T02:49:24;18.70;99.90
37446;DHT22;23307;51.136;14.942;2023-09-19T02:51:50;18.70;99.90
37446;DHT22;23307;51.136;14.942;2023-09-19T02:54:17;18.70;99.90
37446;DHT22;23307;51.136;14.942;2023-09-19T02:56:43;18.70;99.90
37446;DHT22;23307;51.136;14.942;2023-09-19T02:59:08;18.60;99.90
37446;DHT22;23307;51.136;14.942;2023-09-19T03:01:36;18.60;99.90
37446;DHT22;23307;51.136;14.942;2023-09-19T03:04:03;18.70;99.90
37446;DHT22;23307;51.136;14.942;2023-09-19T03:06:28;18.60;99.90
37446;DHT22;23307;51.136;14.942;2023-09-19T03:08:56;18.70;99.90
37446;DHT22;23307;51.136;14.942;2023-09-19T03:11:22;18.70;99.90
37446;DHT22;23307;51.136;14.942;2023-09-19T03:13:54;18.70;99.90
37446;DHT22;23307;51.136;14.942;2023-09-19T03:16:20;18.70;99.90
37446;DHT22;23307;51.136;14.942;2023-09-19T03:18:47;18.70;99.90
37446;DHT22;23307;51.136;14.942;2023-09-19T03:21:15;18.60;99.90
37446;DHT22;23307;51.136;14.942;2023-09-19T03:23:40;18.60;99.90
37446;DHT22;23307;51.136;14.942;2023-09-19T03:26:06;18.60;99.90
37446;DHT22;23307;51.136;14.942;2023-09-19T03:28:33;18.60;99.90
37446;DHT22;23307;51.136;14.942;2023-09-19T03:31:04;18.60;99.90
37446;DHT22;23307;51.136;14.942;2023-09-19T03:33:29;18.60;99.90
37446;DHT22;23307;51.136;14.942;2023-09-19T03:35:59;18.60;99.90
37446;DHT22;23307;51.136;14.942;2023-09-19T03:38:26;18.60;99.90
37446;DHT22;23307;51.136;14.942;2023-09-19T03:40:52;18.60;99.90
37446;DHT22;23307;51.136;14.942;2023-09-19T03:43:18;18.60;99.90
37446;DHT22;23307;51.136;14.942;2023-09-19T03:45:44;18.60;99.90
37446;DHT22;23307;51.136;14.942;2023-09-19T03:48:11;18.60;99.90
37446;DHT22;23307;51.136;14.942;2023-09-19T03:50:36;18.60;99.90
37446;DHT22;23307;51.136;14.942;2023-09-19T03:53:02;18.60;99.90
37446;DHT22;23307;51.136;14.942;2023-09-19T03:55:28;18.60;99.90
37446;DHT22;23307;51.136;14.942;2023-09-19T03:57:55;18.60;99.90
37446;DHT22;23307;51.136;14.942;2023-09-19T04:00:21;18.60;99.90
37446;DHT22;23307;51.136;14.942;2023-09-19T04:02:51;18.60;99.90
37446;DHT22;23307;51.136;14.942;2023-09-19T04:05:17;18.60;99.90
37446;DHT22;23307;51.136;14.942;2023-09-19T04:07:42;18.60;99.90
37446;DHT22;23307;51.136;14.942;2023-09-19T04:10:08;18.70;99.90
37446;DHT22;23307;51.136;14.942;2023-09-19T04:12:35;18.70;99.90
37446;DHT22;23307;51.136;14.942;2023-09-19T04:15:01;18.70;99.90
37446;DHT22;23307;51.136;14.942;2023-09-19T04:17:26;18.60;99.90
37446;DHT22;23307;51.136;14.942;2023-09-19T04:19:52;18.60;99.90
37446;DHT22;23307;51.136;14.942;2023-09-19T04:22:18;18.70;99.90
37446;DHT22;23307;51.136;14.942;2023-09-19T04:24:44;18.60;99.90
37446;DHT22;23307;51.136;14.942;2023-09-19T04:27:10;18.70;99.90
37446;DHT22;23307;51.136;14.942;2023-09-19T04:29:37;18.70;99.90
37446;DHT22;23307;51.136;14.942;2023-09-19T04:32:04;18.70;99.90
37446;DHT22;23307;51.136;14.942;2023-09-19T04:34:31;18.70;99.90
37446;DHT22;23307;51.136;14.942;2023-09-19T04:36:56;18.70;99.90
37446;DHT22;23307;51.136;14.942;2023-09-19T04:39:23;18.70;99.90
37446;DHT22;23307;51.136;14.942;2023-09-19T04:41:51;18.60;99.90
37446;DHT22;23307;51.136;14.942;2023-09-19T04:44:18;18.60;99.90
37446;DHT22;23307;51.136;14.942;2023-09-19T04:46:44;18.60;99.90
37446;DHT22;23307;51.136;14.942;2023-09-19T04:49:11;18.70;99.90
37446;DHT22;23307;51.136;14.942;2023-09-19T04:51:37;18.70;99.90
37446;DHT22;23307;51.136;14.942;2023-09-19T04:54:03;18.70;99.90
37446;DHT22;23307;51.136;14.942;2023-09-19T04:56:29;18.70;99.90
37446;DHT22;23307;51.136;14.942;2023-09-19T04:58:55;18.70;99.90
37446;DHT22;23307;51.136;14.942;2023-09-19T05:01:21;18.70;99.90
37446;DHT22;23307;51.136;14.942;2023-09-19T05:03:47;18.70;99.90
37446;DHT22;23307;51.136;14.942;2023-09-19T05:06:18;18.70;99.90
37446;DHT22;23307;51.136;14.942;2023-09-19T05:08:43;18.80;99.90
37446;DHT22;23307;51.136;14.942;2023-09-19T05:11:09;18.70;99.90
37446;DHT22;23307;51.136;14.942;2023-09-19T05:13:34;18.80;99.90
37446;DHT22;23307;51.136;14.942;2023-09-19T05:16:00;18.80;99.90
37446;DHT22;23307;51.136;14.942;2023-09-19T05:18:29;18.80;99.90
37446;DHT22;23307;51.136;14.942;2023-09-19T05:20:54;18.80;99.90
37446;DHT22;23307;51.136;14.942;2023-09-19T05:23:20;18.90;99.90
37446;DHT22;23307;51.136;14.942;2023-09-19T05:25:46;18.80;99.90
37446;DHT22;23307;51.136;14.942;2023-09-19T05:28:12;18.90;99.90
37446;DHT22;23307;51.136;14.942;2023-09-19T05:30:40;18.90;99.90
37446;DHT22;23307;51.136;14.942;2023-09-19T05:33:08;18.90;99.90
37446;DHT22;23307;51.136;14.942;2023-09-19T05:35:35;18.90;99.90
37446;DHT22;23307;51.136;14.942;2023-09-19T05:38:05;18.90;99.90
37446;DHT22;23307;51.136;14.942;2023-09-19T05:40:34;18.90;99.90
37446;DHT22;23307;51.136;14.942;2023-09-19T05:43:00;18.90;99.90
37446;DHT22;23307;51.136;14.942;2023-09-19T05:45:26;19.00;99.90
37446;DHT22;23307;51.136;14.942;2023-09-19T05:47:53;18.90;99.90
37446;DHT22;23307;51.136;14.942;2023-09-19T05:50:26;18.90;99.90
37446;DHT22;23307;51.136;14.942;2023-09-19T05:52:52;18.90;99.90
37446;DHT22;23307;51.136;14.942;2023-09-19T05:55:18;18.90;99.90
37446;DHT22;23307;51.136;14.942;2023-09-19T05:57:52;18.90;99.90
37446;DHT22;23307;51.136;14.942;2023-09-19T06:00:21;19.00;99.90
37446;DHT22;23307;51.136;14.942;2023-09-19T06:02:56;19.00;99.90
37446;DHT22;23307;51.136;14.942;2023-09-19T06:05:23;19.10;99.90
37446;DHT22;23307;51.136;14.942;2023-09-19T06:07:49;19.10;99.90
37446;DHT22;23307;51.136;14.942;2023-09-19T06:10:16;19.20;99.90
37446;DHT22;23307;51.136;14.942;2023-09-19T06:12:43;19.20;99.90
37446;DHT22;23307;51.136;14.942;2023-09-19T06:15:10;19.20;99.90
37446;DHT22;23307;51.136;14.942;2023-09-19T06:17:46;19.30;99.90
37446;DHT22;23307;51.136;14.942;2023-09-19T06:20:12;19.30;99.90
37446;DHT22;23307;51.136;14.942;2023-09-19T06:22:44;19.30;99.90
37446;DHT22;23307;51.136;14.942;2023-09-19T06:25:11;19.40;99.90
37446;DHT22;23307;51.136;14.942;2023-09-19T06:27:40;19.40;99.90
37446;DHT22;23307;51.136;14.942;2023-09-19T06:30:11;19.50;99.90
37446;DHT22;23307;51.136;14.942;2023-09-19T06:32:37;19.50;99.90
37446;DHT22;23307;51.136;14.942;2023-09-19T06:35:03;19.50;99.90
37446;DHT22;23307;51.136;14.942;2023-09-19T06:37:30;19.50;99.90
37446;DHT22;23307;51.136;14.942;2023-09-19T06:39:55;19.50;99.90
37446;DHT22;23307;51.136;14.942;2023-09-19T06:42:22;19.50;99.90
37446;DHT22;23307;51.136;14.942;2023-09-19T06:44:48;19.50;99.90
37446;DHT22;23307;51.136;14.942;2023-09-19T06:47:14;19.50;99.90
37446;DHT22;23307;51.136;14.942;2023-09-19T06:49:41;19.60;99.90
37446;DHT22;23307;51.136;14.942;2023-09-19T06:52:09;19.60;99.90
37446;DHT22;23307;51.136;14.942;2023-09-19T06:54:35;19.60;99.90
37446;DHT22;23307;51.136;14.942;2023-09-19T06:57:01;19.60;99.90
37446;DHT22;23307;51.136;14.942;2023-09-19T06:59:27;19.60;99.90
37446;DHT22;23307;51.136;14.942;2023-09-19T07:01:52;19.60;99.90
37446;DHT22;23307;51.136;14.942;2023-09-19T07:04:18;19.70;99.90
37446;DHT22;23307;51.136;14.942;2023-09-19T07:06:51;19.70;99.90
37446;DHT22;23307;51.136;14.942;2023-09-19T07:09:17;19.70;99.90
37446;DHT22;23307;51.136;14.942;2023-09-19T07:11:43;19.80;99.90
37446;DHT22;23307;51.136;14.942;2023-09-19T07:14:08;19.80;99.90
37446;DHT22;23307;51.136;14.942;2023-09-19T07:16:37;19.90;99.90
37446;DHT22;23307;51.136;14.942;2023-09-19T07:19:04;19.90;99.90
37446;DHT22;23307;51.136;14.942;2023-09-19T07:21:30;19.90;99.90
37446;DHT22;23307;51.136;14.942;2023-09-19T07:23:56;19.90;99.90
37446;DHT22;23307;51.136;14.942;2023-09-19T07:26:21;20.00;99.90
37446;DHT22;23307;51.136;14.942;2023-09-19T07:28:47;20.00;99.90
37446;DHT22;23307;51.136;14.942;2023-09-19T07:31:12;20.10;99.90
37446;DHT22;23307;51.136;14.942;2023-09-19T07:33:39;20.10;99.90
37446;DHT22;23307;51.136;14.942;2023-09-19T07:36:05;20.10;99.90
37446;DHT22;23307;51.136;14.942;2023-09-19T07:38:31;20.10;99.90
37446;DHT22;23307;51.136;14.942;2023-09-19T07:41:01;20.10;99.90
37446;DHT22;23307;51.136;14.942;2023-09-19T07:43:28;20.20;99.90
37446;DHT22;23307;51.136;14.942;2023-09-19T07:45:53;20.10;99.90
37446;DHT22;23307;51.136;14.942;2023-09-19T07:48:19;20.10;99.90
37446;DHT22;23307;51.136;14.942;2023-09-19T07:50:44;20.10;99.90
37446;DHT22;23307;51.136;14.942;2023-09-19T07:53:10;20.10;99.90
37446;DHT22;23307;51.136;14.942;2023-09-19T07:55:38;20.00;99.90
37446;DHT22;23307;51.136;14.942;2023-09-19T07:58:06;20.00;99.90
37446;DHT22;23307;51.136;14.942;2023-09-19T08:00:32;19.90;99.90
37446;DHT22;23307;51.136;14.942;2023-09-19T08:03:00;19.90;99.90
37446;DHT22;23307;51.136;14.942;2023-09-19T08:05:26;19.90;99.90
37446;DHT22;23307;51.136;14.942;2023-09-19T08:07:52;19.90;99.90
37446;DHT22;23307;51.136;14.942;2023-09-19T08:10:19;19.90;99.90
37446;DHT22;23307;51.136;14.942;2023-09-19T08:12:47;20.00;99.90
37446;DHT22;23307;51.136;14.942;2023-09-19T08:15:17;20.10;99.90
37446;DHT22;23307;51.136;14.942;2023-09-19T08:17:45;20.10;99.90
37446;DHT22;23307;51.136;14.942;2023-09-19T08:20:11;20.20;99.90
37446;DHT22;23307;51.136;14.942;2023-09-19T08:22:53;20.30;99.90
37446;DHT22;23307;51.136;14.942;2023-09-19T08:25:22;20.40;99.90
37446;DHT22;23307;51.136;14.942;2023-09-19T08:27:48;20.50;99.90
37446;DHT22;23307;51.136;14.942;2023-09-19T08:30:16;20.50;99.90
37446;DHT22;23307;51.136;14.942;2023-09-19T08:32:42;20.50;99.90
37446;DHT22;23307;51.136;14.942;2023-09-19T08:35:08;20.60;99.90
37446;DHT22;23307;51.136;14.942;2023-09-19T08:37:35;20.60;99.90
37446;DHT22;23307;51.136;14.942;2023-09-19T08:40:00;20.50;99.90
37446;DHT22;23307;51.136;14.942;2023-09-19T08:42:26;20.50;99.90
37446;DHT22;23307;51.136;14.942;2023-09-19T08:44:52;20.50;99.90
37446;DHT22;23307;51.136;14.942;2023-09-19T08:47:31;20.70;99.90
37446;DHT22;23307;51.136;14.942;2023-09-19T08:50:05;20.70;99.90
37446;DHT22;23307;51.136;14.942;2023-09-19T08:52:42;20.70;99.90
37446;DHT22;23307;51.136;14.942;2023-09-19T08:55:11;20.90;99.90
37446;DHT22;23307;51.136;14.942;2023-09-19T08:57:37;21.00;99.90
37446;DHT22;23307;51.136;14.942;2023-09-19T09:00:08;21.10;99.90
37446;DHT22;23307;51.136;14.942;2023-09-19T09:02:40;21.00;99.90
37446;DHT22;23307;51.136;14.942;2023-09-19T09:05:08;21.00;99.90
37446;DHT22;23307;51.136;14.942;2023-09-19T09:07:36;21.00;99.90
37446;DHT22;23307;51.136;14.942;2023-09-19T09:10:03;21.20;99.90
37446;DHT22;23307;51.136;14.942;2023-09-19T09:12:29;21.50;99.90
37446;DHT22;23307;51.136;14.942;2023-09-19T09:14:55;21.50;99.90
37446;DHT22;23307;51.136;14.942;2023-09-19T09:17:25;21.60;99.90
37446;DHT22;23307;51.136;14.942;2023-09-19T09:19:54;21.80;99.90
37446;DHT22;23307;51.136;14.942;2023-09-19T09:22:21;22.00;99.90
37446;DHT22;23307;51.136;14.942;2023-09-19T09:24:53;22.20;99.90
37446;DHT22;23307;51.136;14.942;2023-09-19T09:27:20;22.20;99.90
37446;DHT22;23307;51.136;14.942;2023-09-19T09:29:49;22.10;99.90
37446;DHT22;23307;51.136;14.942;2023-09-19T09:32:29;21.90;99.90
37446;DHT22;23307;51.136;14.942;2023-09-19T09:34:56;21.80;99.90
37446;DHT22;23307;51.136;14.942;2023-09-19T09:37:23;21.70;99.90
37446;DHT22;23307;51.136;14.942;2023-09-19T09:39:56;21.40;99.90
37446;DHT22;23307;51.136;14.942;2023-09-19T09:42:34;21.50;99.90
37446;DHT22;23307;51.136;14.942;2023-09-19T09:47:48;21.40;99.90
37446;DHT22;23307;51.136;14.942;2023-09-19T09:50:30;21.50;99.90
37446;DHT22;23307;51.136;14.942;2023-09-19T09:53:23;21.70;99.90
37446;DHT22;23307;51.136;14.942;2023-09-19T09:56:11;21.70;99.90
37446;DHT22;23307;51.136;14.942;2023-09-19T10:01:14;21.40;99.90
37446;DHT22;23307;51.136;14.942;2023-09-19T10:03:42;21.50;99.90
37446;DHT22;23307;51.136;14.942;2023-09-19T10:06:15;21.40;99.90
37446;DHT22;23307;51.136;14.942;2023-09-19T10:09:06;21.30;99.90
37446;DHT22;23307;51.136;14.942;2023-09-19T10:11:47;21.40;99.90
37446;DHT22;23307;51.136;14.942;2023-09-19T10:14:20;21.50;99.90
37446;DHT22;23307;51.136;14.942;2023-09-19T10:16:49;21.70;99.90
37446;DHT22;23307;51.136;14.942;2023-09-19T10:22:12;22.00;99.90
37446;DHT22;23307;51.136;14.942;2023-09-19T10:24:40;22.10;99.90
37446;DHT22;23307;51.136;14.942;2023-09-19T10:27:07;22.30;99.90
37446;DHT22;23307;51.136;14.942;2023-09-19T10:29:39;22.50;99.90
37446;DHT22;23307;51.136;14.942;2023-09-19T10:32:06;22.70;99.90
37446;DHT22;23307;51.136;14.942;2023-09-19T10:34:35;22.80;99.90
37446;DHT22;23307;51.136;14.942;2023-09-19T10:37:02;23.00;99.90
37446;DHT22;23307;51.136;14.942;2023-09-19T10:39:32;22.90;99.90
37446;DHT22;23307;51.136;14.942;2023-09-19T10:42:02;23.10;99.90
37446;DHT22;23307;51.136;14.942;2023-09-19T10:44:33;23.20;99.90
37446;DHT22;23307;51.136;14.942;2023-09-19T10:46:59;23.30;99.90
37446;DHT22;23307;51.136;14.942;2023-09-19T10:49:24;23.60;99.90
37446;DHT22;23307;51.136;14.942;2023-09-19T10:51:55;23.60;99.90
37446;DHT22;23307;51.136;14.942;2023-09-19T10:54:27;23.20;99.90
37446;DHT22;23307;51.136;14.942;2023-09-19T10:56:54;23.00;99.90
37446;DHT22;23307;51.136;14.942;2023-09-19T10:59:24;22.70;99.90
37446;DHT22;23307;51.136;14.942;2023-09-19T11:01:53;22.50;99.90
37446;DHT22;23307;51.136;14.942;2023-09-19T11:04:32;22.30;99.90
37446;DHT22;23307;51.136;14.942;2023-09-19T11:09:53;22.60;99.90
37446;DHT22;23307;51.136;14.942;2023-09-19T11:14:58;22.90;99.90
37446;DHT22;23307;51.136;14.942;2023-09-19T11:17:37;23.00;99.90
37446;DHT22;23307;51.136;14.942;2023-09-19T11:31:43;24.20;99.90
37446;DHT22;23307;51.136;14.942;2023-09-19T11:34:44;24.40;99.90
37446;DHT22;23307;51.136;14.942;2023-09-19T11:37:59;24.30;99.90
37446;DHT22;23307;51.136;14.942;2023-09-19T11:40:09;23.90;99.90
37446;DHT22;23307;51.136;14.942;2023-09-19T11:42:47;23.70;99.90
37446;DHT22;23307;51.136;14.942;2023-09-19T11:48:23;23.60;99.90
37446;DHT22;23307;51.136;14.942;2023-09-19T11:50:50;23.70;99.90
37446;DHT22;23307;51.136;14.942;2023-09-19T11:53:17;23.80;99.90
37446;DHT22;23307;51.136;14.942;2023-09-19T11:55:43;24.00;99.90
37446;DHT22;23307;51.136;14.942;2023-09-19T11:58:09;24.10;99.90
37446;DHT22;23307;51.136;14.942;2023-09-19T12:00:38;24.30;99.90
37446;DHT22;23307;51.136;14.942;2023-09-19T12:03:09;24.50;99.90
37446;DHT22;23307;51.136;14.942;2023-09-19T12:05:36;24.70;99.70
37446;DHT22;23307;51.136;14.942;2023-09-19T12:08:07;24.70;99.40
37446;DHT22;23307;51.136;14.942;2023-09-19T12:10:49;24.80;99.30
37446;DHT22;23307;51.136;14.942;2023-09-19T12:13:18;24.90;99.40
37446;DHT22;23307;51.136;14.942;2023-09-19T12:15:44;25.00;98.10
37446;DHT22;23307;51.136;14.942;2023-09-19T12:18:31;24.80;98.70
37446;DHT22;23307;51.136;14.942;2023-09-19T12:20:58;25.00;99.50
37446;DHT22;23307;51.136;14.942;2023-09-19T12:23:25;24.90;98.50
37446;DHT22;23307;51.136;14.942;2023-09-19T12:25:54;24.80;97.80
37446;DHT22;23307;51.136;14.942;2023-09-19T12:28:27;24.70;97.80
37446;DHT22;23307;51.136;14.942;2023-09-19T12:30:53;24.80;98.80
37446;DHT22;23307;51.136;14.942;2023-09-19T12:33:23;25.10;98.70
37446;DHT22;23307;51.136;14.942;2023-09-19T12:35:51;25.20;97.40
37446;DHT22;23307;51.136;14.942;2023-09-19T12:38:26;25.40;98.10
37446;DHT22;23307;51.136;14.942;2023-09-19T12:40:57;25.40;96.40
37446;DHT22;23307;51.136;14.942;2023-09-19T12:43:29;25.30;97.40
37446;DHT22;23307;51.136;14.942;2023-09-19T12:45:57;25.40;96.40
37446;DHT22;23307;51.136;14.942;2023-09-19T12:48:25;25.20;96.40
37446;DHT22;23307;51.136;14.942;2023-09-19T12:51:15;25.30;96.40
37446;DHT22;23307;51.136;14.942;2023-09-19T12:53:43;25.30;95.90
37446;DHT22;23307;51.136;14.942;2023-09-19T12:56:11;25.30;95.40
37446;DHT22;23307;51.136;14.942;2023-09-19T12:58:56;25.30;96.40
37446;DHT22;23307;51.136;14.942;2023-09-19T13:01:26;25.60;96.20
37446;DHT22;23307;51.136;14.942;2023-09-19T13:04:21;25.50;95.10
37446;DHT22;23307;51.136;14.942;2023-09-19T13:06:55;25.60;95.40
37446;DHT22;23307;51.136;14.942;2023-09-19T13:09:26;25.80;95.00
37446;DHT22;23307;51.136;14.942;2023-09-19T13:12:00;26.00;94.50
37446;DHT22;23307;51.136;14.942;2023-09-19T13:14:29;26.00;93.70
37446;DHT22;23307;51.136;14.942;2023-09-19T13:17:07;26.10;93.70
37446;DHT22;23307;51.136;14.942;2023-09-19T13:19:44;26.10;93.60
37446;DHT22;23307;51.136;14.942;2023-09-19T13:22:45;26.00;93.40
37446;DHT22;23307;51.136;14.942;2023-09-19T13:25:21;25.90;93.80
37446;DHT22;23307;51.136;14.942;2023-09-19T13:27:49;25.80;93.40
37446;DHT22;23307;51.136;14.942;2023-09-19T13:30:17;25.80;93.80
37446;DHT22;23307;51.136;14.942;2023-09-19T13:32:43;25.80;93.60
37446;DHT22;23307;51.136;14.942;2023-09-19T13:35:09;25.70;93.40
37446;DHT22;23307;51.136;14.942;2023-09-19T13:37:35;25.80;93.70
37446;DHT22;23307;51.136;14.942;2023-09-19T13:40:04;25.90;94.00
37446;DHT22;23307;51.136;14.942;2023-09-19T13:42:30;26.10;94.60
37446;DHT22;23307;51.136;14.942;2023-09-19T13:44:57;26.40;94.00
37446;DHT22;23307;51.136;14.942;2023-09-19T13:47:22;26.50;93.40
37446;DHT22;23307;51.136;14.942;2023-09-19T13:49:50;26.30;92.30
37446;DHT22;23307;51.136;14.942;2023-09-19T13:52:20;26.20;92.60
37446;DHT22;23307;51.136;14.942;2023-09-19T13:54:45;26.30;92.90
37446;DHT22;23307;51.136;14.942;2023-09-19T13:57:11;26.20;92.30
37446;DHT22;23307;51.136;14.942;2023-09-19T13:59:36;26.40;92.40
37446;DHT22;23307;51.136;14.942;2023-09-19T14:02:02;26.30;91.40
37446;DHT22;23307;51.136;14.942;2023-09-19T14:04:31;25.80;91.70
37446;DHT22;23307;51.136;14.942;2023-09-19T14:06:57;25.60;92.80
37446;DHT22;23307;51.136;14.942;2023-09-19T14:09:23;25.70;93.20
37446;DHT22;23307;51.136;14.942;2023-09-19T14:11:50;25.70;92.00
37446;DHT22;23307;51.136;14.942;2023-09-19T14:14:20;25.60;92.40
37446;DHT22;23307;51.136;14.942;2023-09-19T14:16:48;25.40;92.10
37446;DHT22;23307;51.136;14.942;2023-09-19T14:19:14;25.30;92.20
37446;DHT22;23307;51.136;14.942;2023-09-19T14:21:41;25.50;92.30
37446;DHT22;23307;51.136;14.942;2023-09-19T14:24:07;25.50;92.30
37446;DHT22;23307;51.136;14.942;2023-09-19T14:26:38;25.60;91.20
37446;DHT22;23307;51.136;14.942;2023-09-19T14:29:03;25.50;90.80
37446;DHT22;23307;51.136;14.942;2023-09-19T14:31:29;25.40;91.60
37446;DHT22;23307;51.136;14.942;2023-09-19T14:33:55;25.50;91.20
37446;DHT22;23307;51.136;14.942;2023-09-19T14:36:22;25.60;91.40
37446;DHT22;23307;51.136;14.942;2023-09-19T14:38:48;25.60;90.80
37446;DHT22;23307;51.136;14.942;2023-09-19T14:41:20;25.60;90.70
37446;DHT22;23307;51.136;14.942;2023-09-19T14:43:45;25.60;91.00
37446;DHT22;23307;51.136;14.942;2023-09-19T14:46:11;25.70;90.50
37446;DHT22;23307;51.136;14.942;2023-09-19T14:48:37;25.80;88.60
37446;DHT22;23307;51.136;14.942;2023-09-19T14:51:06;25.80;88.10
37446;DHT22;23307;51.136;14.942;2023-09-19T14:53:34;25.70;90.20
37446;DHT22;23307;51.136;14.942;2023-09-19T14:56:03;25.60;89.80
37446;DHT22;23307;51.136;14.942;2023-09-19T14:58:32;25.50;90.40
37446;DHT22;23307;51.136;14.942;2023-09-19T15:01:06;25.50;90.60
37446;DHT22;23307;51.136;14.942;2023-09-19T15:03:32;25.50;90.60
37446;DHT22;23307;51.136;14.942;2023-09-19T15:06:02;25.50;90.30
37446;DHT22;23307;51.136;14.942;2023-09-19T15:08:30;25.40;90.10
37446;DHT22;23307;51.136;14.942;2023-09-19T15:10:56;25.30;90.00
37446;DHT22;23307;51.136;14.942;2023-09-19T15:13:24;25.10;90.40
37446;DHT22;23307;51.136;14.942;2023-09-19T15:16:01;25.00;90.90
37446;DHT22;23307;51.136;14.942;2023-09-19T15:18:28;24.80;91.40
37446;DHT22;23307;51.136;14.942;2023-09-19T15:20:56;24.70;91.90
37446;DHT22;23307;51.136;14.942;2023-09-19T15:23:21;24.60;92.20
37446;DHT22;23307;51.136;14.942;2023-09-19T15:25:50;24.40;92.70
37446;DHT22;23307;51.136;14.942;2023-09-19T15:28:16;24.20;92.70
37446;DHT22;23307;51.136;14.942;2023-09-19T15:30:41;24.20;93.50
37446;DHT22;23307;51.136;14.942;2023-09-19T15:33:07;24.10;93.30
37446;DHT22;23307;51.136;14.942;2023-09-19T15:35:33;24.00;93.80
37446;DHT22;23307;51.136;14.942;2023-09-19T15:37:58;24.00;93.70
37446;DHT22;23307;51.136;14.942;2023-09-19T15:40:26;23.90;94.00
37446;DHT22;23307;51.136;14.942;2023-09-19T15:42:54;23.80;94.30
37446;DHT22;23307;51.136;14.942;2023-09-19T15:45:19;23.80;94.40
37446;DHT22;23307;51.136;14.942;2023-09-19T15:47:45;23.70;93.70
37446;DHT22;23307;51.136;14.942;2023-09-19T15:50:10;23.50;94.00
37446;DHT22;23307;51.136;14.942;2023-09-19T15:52:39;23.40;94.50
37446;DHT22;23307;51.136;14.942;2023-09-19T15:55:06;23.50;95.30
37446;DHT22;23307;51.136;14.942;2023-09-19T15:57:32;23.60;95.20
37446;DHT22;23307;51.136;14.942;2023-09-19T15:59:59;23.60;94.50
37446;DHT22;23307;51.136;14.942;2023-09-19T16:02:25;23.50;95.00
37446;DHT22;23307;51.136;14.942;2023-09-19T16:04:54;23.40;95.00
37446;DHT22;23307;51.136;14.942;2023-09-19T16:07:19;23.40;95.80